Flight Track Log - Related Links

Times and Time Zones

All times are in EDT time to prevent confusion due to time zone crossing. See the CTL22 flight status page for this flight to view local times or setup timezone preferences in your user account.


Time Position Orientation Groundspeed Altitude Reporting Facility
EDT Latitude Longitude Course Direction KTS MPH feet Rate Location/Type
Tue 08:07:16 PM 42.1736 -85.3928 106° East 130 150 4,300  Level Chicago Center
Tue 08:08:18 PM 42.1597 -85.3419 110° East 143 165 5,100 774 Climbing Chicago Center
Tue 08:09:20 PM 42.1394 -85.2978 122° Southeast 140 161 5,900 677 Climbing Chicago Center
Tue 08:10:00 PM 42.1715 -85.1783 103° East  Level Estimated
Tue 08:10:22 PM 42.1217 -85.2494 116° Southeast 142 163 6,500  Level Chicago Center
Tue 08:11:00 PM 42.1609 -85.1161 103° East  Level Estimated
Tue 08:11:24 PM 42.1025 -85.1989 117° Southeast 148 170 7,000  Level Chicago Center
Tue 08:12:26 PM 42.0753 -85.1289 118° Southeast 169 194 7,100  Climbing Chicago Center
Tue 08:13:28 PM 42.0503 -85.0656 118° Southeast 186 214 7,000  Descending Chicago Center
Tue 08:14:30 PM 42.0242 -85.0067 121° Southeast 185 213 7,100 -48 Climbing Chicago Center
Tue 08:15:32 PM 41.9986 -84.9456 119° Southeast 186 214 6,900 -48 Descending Chicago Center
Tue 08:16:34 PM 41.9728 -84.8867 121° Southeast 184 212 7,000 97 Climbing Chicago Center
Tue 08:17:36 PM 41.9506 -84.8250 116° Southeast 183 211 7,100  Climbing Chicago Center
Tue 08:18:38 PM 41.9308 -84.7600 112° Southeast 186 214 7,000 -97 Descending Chicago Center
Tue 08:19:40 PM 41.9064 -84.6833 113° Southeast 187 215 6,900 -48 Descending Chicago Center
Tue 08:20:42 PM 41.8847 -84.6200 115° Southeast 188 216 6,900  Level Chicago Center
Tue 08:21:44 PM 41.8717 -84.5528 105° East 187 215 6,900 48 Level Chicago Center
Tue 08:22:46 PM 41.8492 -84.4903 116° Southeast 185 213 7,000 48 Climbing Chicago Center
Tue 08:23:48 PM 41.8281 -84.4289 115° Southeast 182 209 7,000  Level Chicago Center
Tue 08:24:50 PM 41.8022 -84.3703 121° Southeast 182 209 7,000  Level Chicago Center
Tue 08:25:52 PM 41.7756 -84.2947 115° Southeast 185 213 7,000  Level Chicago Center
Tue 08:26:54 PM 41.7536 -84.2328 115° Southeast 186 214 7,000 48 Level Chicago Center
Tue 08:27:56 PM 41.7339 -84.1711 113° Southeast 184 212 7,100  Climbing Chicago Center
Tue 08:28:58 PM 41.7139 -84.1086 113° Southeast 183 211 7,000 -6 Descending Chicago Center
Tue 08:44:47 PM 41.6208 -83.0386 96° East 182 209 7,000 Level Cleveland Center
Tue 08:45:36 PM 41.6158 -82.9800 96° East 180 207 7,100 55 Climbing Cleveland Center
Tue 08:46:36 PM 41.6111 -82.9161 96° East 179 206 7,100 -50 Level Cleveland Center
Tue 08:47:37 PM 41.6083 -82.8464 93° East 184 212 7,000  Descending Cleveland Center
Tue 08:48:38 PM 41.6053 -82.7797 93° East 180 207 7,100  Climbing Cleveland Center
Tue 08:49:38 PM 41.6044 -82.7131 91° East 180 207 7,000 -50 Descending Cleveland Center
Tue 08:50:39 PM 41.5975 -82.6461 98° East 180 207 7,000  Level Cleveland Center
Tue 08:51:39 PM 41.5964 -82.5794 91° East 181 208 7,000  Level Cleveland Center
Tue 08:52:40 PM 41.5997 -82.5131 86° East 181 208 7,000 -197 Level Cleveland Center
Tue 08:53:41 PM 41.6008 -82.4464 89° East 182 209 6,600 -645 Descending Cleveland Center
Tue 08:54:41 PM 41.6042 -82.3658 87° East 204 235 5,700 -887 Descending Cleveland Center
Tue 08:55:36 PM 41.6031 -82.2964 91° East 200 230 4,900 -891 Descending Cleveland Center
Tue 08:56:49 PM 41.6025 -82.2103 90° East 198 228 3,800 -857 Descending Cleveland Center
Tue 08:57:49 PM 41.5992 -82.1408 94° East 194 223 3,000 -378 Descending Cleveland Center
Tue 08:58:56 PM 41.5917 -82.0686 98° East 163 188 3,000 -283 Level Cleveland Center
Tue 08:59:56 PM 41.5842 -82.0072 99° East 164 189 2,400 -582 Descending Cleveland Center
Tue 09:01:10 PM 41.5706 -81.9319 104° East 178 205 1,700 -344 Descending Cleveland Center
Tue 09:01:58 PM 41.5606 -81.8847 106° East 158 182 1,700  Level Cleveland Center
Tue 09:02:59 PM 41.5467 -81.8289 108° East 152 175 1,700 -49 Level Cleveland Center
Tue 09:04:00 PM 41.5306 -81.7814 114° Southeast 151 174 1,600 -248 Descending Cleveland Center
Tue 09:05:00 PM 41.5164 -81.7311 111° Southeast 140 161 1,200 -400 Descending Cleveland Center
Tue 09:06:00 PM 41.5175 -81.6833 90° East  Level Estimated

Login

Don't have an account? Register now (free) for customized features, flight alerts, and more!